createdAt,value
2017-08-13T00:02:20.019Z,77.75
2017-08-13T00:04:50.957Z,77.46
2017-08-13T00:07:20.430Z,77.08
2017-08-13T00:09:50.304Z,77.01
2017-08-13T00:12:19.426Z,77.56
2017-08-13T00:14:49.011Z,77.53
2017-08-13T00:17:18.372Z,77.83
2017-08-13T00:19:48.111Z,78.26
2017-08-13T00:22:17.468Z,78.52
2017-08-13T00:24:46.774Z,78.53
2017-08-13T00:27:16.552Z,78.13
2017-08-13T00:29:45.982Z,78.09
2017-08-13T00:32:15.419Z,78.41
2017-08-13T00:34:44.678Z,78.72
2017-08-13T00:37:14.418Z,79.55
2017-08-13T00:39:43.629Z,78.90
2017-08-13T00:42:13.083Z,78.96
2017-08-13T00:44:42.541Z,78.95
2017-08-13T00:47:11.758Z,79.37
2017-08-13T00:49:41.543Z,79.26
2017-08-13T00:52:10.754Z,79.91
2017-08-13T00:54:40.063Z,79.67
2017-08-13T00:57:09.707Z,79.24
2017-08-13T00:59:38.589Z,79.20
2017-08-13T01:02:07.895Z,79.22
2017-08-13T01:04:37.337Z,79.72
2017-08-13T01:07:06.957Z,80.12
2017-08-13T01:09:36.296Z,80.70
2017-08-13T01:12:05.737Z,80.77
2017-08-13T01:14:35.310Z,80.83
2017-08-13T01:17:05.063Z,80.40
2017-08-13T01:19:34.591Z,80.06
2017-08-13T01:22:04.325Z,79.77
2017-08-13T01:24:33.798Z,79.33
2017-08-13T01:27:03.533Z,79.12
2017-08-13T01:29:33.585Z,79.34
2017-08-13T01:32:03.339Z,79.53
2017-08-13T01:34:32.712Z,79.64
2017-08-13T01:37:02.362Z,79.87
2017-08-13T01:39:31.903Z,79.83
2017-08-13T01:42:01.035Z,80.00
2017-08-13T01:44:30.660Z,80.25
2017-08-13T01:47:00.128Z,79.89
2017-08-13T01:49:29.458Z,79.40
2017-08-13T01:51:59.510Z,79.37
2017-08-13T01:54:29.323Z,79.29
2017-08-13T01:56:58.811Z,79.22
2017-08-13T01:59:29.006Z,79.13
2017-08-13T02:01:58.580Z,79.07
2017-08-13T02:04:27.935Z,78.86
2017-08-13T02:06:57.420Z,78.17
2017-08-13T02:09:26.681Z,79.02
2017-08-13T02:11:56.410Z,78.78
2017-08-13T02:14:25.581Z,78.98
2017-08-13T02:16:54.991Z,78.78
2017-08-13T02:19:24.896Z,79.01
2017-08-13T02:21:54.191Z,79.11
2017-08-13T02:24:23.803Z,79.23
2017-08-13T02:26:52.952Z,79.37
2017-08-13T02:29:22.698Z,79.27
2017-08-13T02:31:52.589Z,79.09
2017-08-13T02:34:22.063Z,79.30
2017-08-13T02:36:51.242Z,79.19
2017-08-13T02:39:20.838Z,79.30
2017-08-13T02:41:50.498Z,79.43
2017-08-13T02:44:20.011Z,78.79
2017-08-13T02:46:49.338Z,78.85
2017-08-13T02:49:18.937Z,78.29
2017-08-13T02:51:48.197Z,78.51
2017-08-13T02:54:17.663Z,78.39
2017-08-13T02:56:47.044Z,78.99
2017-08-13T02:59:16.374Z,79.02
2017-08-13T03:01:45.931Z,78.95
2017-08-13T03:04:15.127Z,79.05
2017-08-13T03:06:44.421Z,79.23
2017-08-13T03:09:15.001Z,79.35
2017-08-13T03:11:45.206Z,79.37
2017-08-13T03:14:15.476Z,80.06
2017-08-13T03:16:44.849Z,79.68
2017-08-13T03:19:14.598Z,79.65
2017-08-13T03:21:44.083Z,79.60
2017-08-13T03:24:13.779Z,79.67
2017-08-13T03:26:43.001Z,79.67
2017-08-13T03:29:12.531Z,79.40
2017-08-13T03:31:42.359Z,78.63
2017-08-13T03:34:11.773Z,78.60
2017-08-13T03:36:40.938Z,78.59
2017-08-13T03:39:10.672Z,78.49
2017-08-13T03:41:40.918Z,78.39
2017-08-13T03:44:10.134Z,76.83
2017-08-13T03:46:40.688Z,77.84
2017-08-13T03:49:10.156Z,78.99
2017-08-13T03:51:39.626Z,79.20
2017-08-13T03:54:09.056Z,79.20
2017-08-13T03:56:38.204Z,78.80
2017-08-13T03:59:07.990Z,78.80
2017-08-13T04:01:37.192Z,77.50
2017-08-13T04:04:06.744Z,77.69
2017-08-13T04:06:36.167Z,78.26
2017-08-13T04:09:05.338Z,78.69
2017-08-13T04:11:35.205Z,79.02
2017-08-13T04:14:04.384Z,78.89
2017-08-13T04:16:33.665Z,78.98
2017-08-13T04:19:03.233Z,79.05
2017-08-13T04:21:33.361Z,79.02
2017-08-13T04:24:02.911Z,79.03
2017-08-13T04:26:32.423Z,79.07
2017-08-13T04:29:02.313Z,79.14
2017-08-13T04:31:31.428Z,78.99
2017-08-13T04:34:00.949Z,79.08
2017-08-13T04:36:30.842Z,79.19
2017-08-13T04:38:59.932Z,79.09
2017-08-13T04:41:29.343Z,78.72
2017-08-13T04:43:58.622Z,78.71
2017-08-13T04:46:28.251Z,78.74
2017-08-13T04:48:57.800Z,77.29
2017-08-13T04:51:27.138Z,73.75
2017-08-13T04:53:57.149Z,74.72
2017-08-13T04:56:26.251Z,74.93
2017-08-13T04:58:56.629Z,74.55
2017-08-13T05:01:25.902Z,75.84
2017-08-13T05:03:55.188Z,75.83
2017-08-13T05:06:24.590Z,75.87
2017-08-13T05:08:53.968Z,76.85
2017-08-13T05:11:23.528Z,75.67
2017-08-13T05:13:52.683Z,75.26
2017-08-13T05:16:22.448Z,76.16
2017-08-13T05:18:51.869Z,74.53
2017-08-13T05:21:21.977Z,74.92
2017-08-13T05:23:51.406Z,75.92
2017-08-13T05:26:20.650Z,76.05
2017-08-13T05:28:50.085Z,75.72
2017-08-13T05:31:19.637Z,75.69
2017-08-13T05:33:49.203Z,75.43
2017-08-13T05:36:18.782Z,75.28
2017-08-13T05:38:48.197Z,75.70
2017-08-13T05:41:17.830Z,76.04
2017-08-13T05:43:47.411Z,76.72
2017-08-13T05:46:17.190Z,76.93
2017-08-13T05:48:46.349Z,77.11
2017-08-13T05:51:15.947Z,76.91
2017-08-13T05:53:45.448Z,77.17
2017-08-13T05:56:14.784Z,77.20
2017-08-13T05:58:44.845Z,77.62
2017-08-13T06:01:14.282Z,77.03
2017-08-13T06:03:43.562Z,76.37
2017-08-13T06:06:13.703Z,76.25
2017-08-13T06:08:43.942Z,74.14
2017-08-13T06:11:13.588Z,74.22
2017-08-13T06:13:43.315Z,73.05
2017-08-13T06:16:12.314Z,72.98
2017-08-13T06:18:42.033Z,73.58
2017-08-13T06:21:11.670Z,72.49
2017-08-13T06:23:41.407Z,72.28
2017-08-13T06:26:10.596Z,70.55
2017-08-13T06:28:41.443Z,70.13
2017-08-13T06:31:11.744Z,70.13
2017-08-13T06:33:41.154Z,70.68
2017-08-13T06:36:11.239Z,70.90
2017-08-13T06:38:40.614Z,69.93
2017-08-13T06:41:10.609Z,68.00
2017-08-13T06:43:39.837Z,68.88
2017-08-13T06:46:09.527Z,69.17
2017-08-13T06:48:38.804Z,68.52
2017-08-13T06:51:08.022Z,70.38
2017-08-13T06:53:37.716Z,69.91
2017-08-13T06:56:07.303Z,69.93
2017-08-13T06:58:37.019Z,69.49
2017-08-13T07:01:06.341Z,68.40
2017-08-13T07:03:35.689Z,66.23
2017-08-13T07:06:05.735Z,67.11
2017-08-13T07:08:36.023Z,65.51
2017-08-13T07:11:06.365Z,67.75
2017-08-13T07:13:36.159Z,66.21
2017-08-13T07:16:05.593Z,66.32
2017-08-13T07:18:35.386Z,67.04
2017-08-13T07:21:05.990Z,66.36
2017-08-13T07:23:35.603Z,65.42
2017-08-13T07:26:04.916Z,66.02
2017-08-13T07:28:34.105Z,65.36
2017-08-13T07:31:04.628Z,65.35
2017-08-13T07:33:34.573Z,66.38
2017-08-13T07:36:04.593Z,66.01
2017-08-13T07:38:34.825Z,66.61
2017-08-13T07:41:04.100Z,66.58
2017-08-13T07:43:33.730Z,66.18
2017-08-13T07:46:02.939Z,65.54
2017-08-13T07:48:32.177Z,65.96
2017-08-13T07:51:02.039Z,65.37
2017-08-13T07:53:31.545Z,65.34
2017-08-13T07:56:00.851Z,64.13
2017-08-13T07:58:30.462Z,63.10
2017-08-13T08:01:00.159Z,62.26
2017-08-13T08:03:29.465Z,62.47
2017-08-13T08:05:58.709Z,62.92
2017-08-13T08:08:27.592Z,62.83
2017-08-13T08:10:57.518Z,62.01
2017-08-13T08:13:27.424Z,62.41
2017-08-13T08:15:56.595Z,62.57
2017-08-13T08:18:26.411Z,62.50
2017-08-13T08:20:57.252Z,59.98
2017-08-13T08:23:26.834Z,60.79
2017-08-13T08:25:56.248Z,61.33
2017-08-13T08:28:26.015Z,62.25
2017-08-13T08:30:55.571Z,61.71
2017-08-13T08:33:26.060Z,61.64
2017-08-13T08:35:55.222Z,60.76
2017-08-13T08:38:24.869Z,61.06
2017-08-13T08:40:54.166Z,60.69
2017-08-13T08:43:24.380Z,60.49
2017-08-13T08:45:54.054Z,62.47
2017-08-13T08:48:25.519Z,59.36
2017-08-13T08:50:55.120Z,60.13
2017-08-13T08:53:26.108Z,58.80
2017-08-13T08:55:55.634Z,60.00
2017-08-13T08:58:24.966Z,59.86
2017-08-13T09:00:54.712Z,59.71
2017-08-13T09:03:24.053Z,60.21
2017-08-13T09:05:53.233Z,59.20
2017-08-13T09:08:22.984Z,59.70
2017-08-13T09:10:52.271Z,58.16
2017-08-13T09:13:21.470Z,58.65
2017-08-13T09:15:50.871Z,59.54
2017-08-13T09:18:20.603Z,58.17
2017-08-13T09:20:50.063Z,58.86
2017-08-13T09:23:20.270Z,57.36
2017-08-13T09:25:49.609Z,57.87
2017-08-13T09:28:19.100Z,57.16
2017-08-13T09:30:48.501Z,57.53
2017-08-13T09:33:18.062Z,58.23
2017-08-13T09:35:47.443Z,57.91
2017-08-13T09:38:17.067Z,56.76
2017-08-13T09:40:46.609Z,56.08
2017-08-13T09:43:15.830Z,57.37
2017-08-13T09:45:45.446Z,56.72
2017-08-13T09:48:15.224Z,58.07
2017-08-13T09:50:44.504Z,56.94
2017-08-13T09:53:14.485Z,56.35
2017-08-13T09:55:43.815Z,55.46
2017-08-13T09:58:13.088Z,56.97
2017-08-13T10:00:42.536Z,56.38
2017-08-13T10:03:12.716Z,56.50
2017-08-13T10:05:42.003Z,57.31
2017-08-13T10:08:11.222Z,60.83
2017-08-13T10:10:40.799Z,58.58
2017-08-13T10:13:10.167Z,59.48
2017-08-13T10:15:39.694Z,58.92
2017-08-13T10:18:09.217Z,58.98
2017-08-13T10:20:38.742Z,59.13
2017-08-13T10:23:08.355Z,60.02
2017-08-13T10:25:37.593Z,60.83
2017-08-13T10:28:07.508Z,59.07
2017-08-13T10:30:36.959Z,57.69
2017-08-13T10:33:06.514Z,57.75
2017-08-13T10:35:36.015Z,57.47
2017-08-13T10:38:05.524Z,58.94
2017-08-13T10:40:35.080Z,56.21
2017-08-13T10:43:04.211Z,56.26
2017-08-13T10:45:33.486Z,54.89
2017-08-13T10:48:03.969Z,55.27
2017-08-13T10:50:34.450Z,54.83
2017-08-13T10:53:03.844Z,55.26
2017-08-13T10:55:34.233Z,53.18
2017-08-13T10:58:03.370Z,53.75
2017-08-13T11:00:32.508Z,53.35
2017-08-13T11:03:02.387Z,53.64
2017-08-13T11:05:31.928Z,53.68
2017-08-13T11:08:02.386Z,51.13
2017-08-13T11:10:31.557Z,50.46
2017-08-13T11:13:00.962Z,50.77
2017-08-13T11:15:30.307Z,49.44
2017-08-13T11:17:59.527Z,49.90
2017-08-13T11:20:29.100Z,49.45
2017-08-13T11:22:58.895Z,50.00
2017-08-13T11:25:28.456Z,50.44
2017-08-13T11:27:58.489Z,53.28
2017-08-13T11:30:27.745Z,52.96
2017-08-13T11:32:57.683Z,51.49
2017-08-13T11:35:27.276Z,52.55
2017-08-13T11:37:56.719Z,53.56
2017-08-13T11:40:27.009Z,52.23
2017-08-13T11:42:56.368Z,53.26
2017-08-13T11:45:26.322Z,51.52
2017-08-13T11:47:55.952Z,52.24
2017-08-13T11:50:25.324Z,52.08
2017-08-13T11:52:54.722Z,53.05
2017-08-13T11:55:24.150Z,53.10
2017-08-13T11:57:53.390Z,53.69
2017-08-13T12:00:23.064Z,55.24
2017-08-13T12:02:52.292Z,56.47
2017-08-13T12:05:21.884Z,56.25
2017-08-13T12:07:50.980Z,54.74
2017-08-13T12:10:20.276Z,56.02
2017-08-13T12:12:49.906Z,56.95
2017-08-13T12:15:19.246Z,56.57
2017-08-13T12:17:48.855Z,56.68
2017-08-13T12:20:18.422Z,57.33
2017-08-13T12:22:48.436Z,56.47
2017-08-13T12:25:17.735Z,55.84
2017-08-13T12:27:47.123Z,54.26
2017-08-13T12:30:16.865Z,53.22
2017-08-13T12:32:46.332Z,53.98
2017-08-13T12:35:15.787Z,53.32
2017-08-13T12:37:45.022Z,52.97
2017-08-13T12:40:14.868Z,52.54
2017-08-13T12:42:44.102Z,52.90
2017-08-13T12:45:13.360Z,52.38
2017-08-13T12:47:42.688Z,49.78
2017-08-13T12:50:12.308Z,46.15
2017-08-13T12:52:41.837Z,41.49
2017-08-13T12:55:11.185Z,38.73
2017-08-13T12:57:41.174Z,41.65
2017-08-13T13:00:10.279Z,43.83
2017-08-13T13:02:40.057Z,46.31
2017-08-13T13:05:09.840Z,46.64
2017-08-13T13:07:39.140Z,46.27
2017-08-13T13:10:08.800Z,44.34
2017-08-13T13:12:38.234Z,45.38
2017-08-13T13:15:07.859Z,45.73
2017-08-13T13:17:36.907Z,47.22
2017-08-13T13:20:06.581Z,45.99
2017-08-13T13:22:36.675Z,48.05
2017-08-13T13:25:06.050Z,49.72
2017-08-13T13:27:35.365Z,50.69
2017-08-13T13:30:04.599Z,51.46
2017-08-13T13:32:34.605Z,52.95
2017-08-13T13:35:04.373Z,52.65
2017-08-13T13:37:33.583Z,52.29
2017-08-13T13:40:03.064Z,53.16
2017-08-13T13:42:32.557Z,53.07
2017-08-13T13:45:02.247Z,52.40
2017-08-13T13:47:31.565Z,53.32
2017-08-13T13:50:01.224Z,53.51
2017-08-13T13:52:30.669Z,52.00
2017-08-13T13:54:59.598Z,53.44
2017-08-13T13:57:28.965Z,53.21
2017-08-13T13:59:58.465Z,52.44
2017-08-13T14:02:27.765Z,50.30
2017-08-13T14:04:57.560Z,51.52
2017-08-13T14:07:26.796Z,53.08
2017-08-13T14:09:55.970Z,52.69
2017-08-13T14:12:25.666Z,52.61
2017-08-13T14:14:54.813Z,51.94
2017-08-13T14:17:24.278Z,51.62
2017-08-13T14:19:53.810Z,51.52
2017-08-13T14:22:23.570Z,49.71
2017-08-13T14:24:53.167Z,48.63
2017-08-13T14:27:22.311Z,47.64
2017-08-13T14:29:51.400Z,47.29
2017-08-13T14:32:21.399Z,43.17
2017-08-13T14:34:50.614Z,42.88
2017-08-13T14:37:20.730Z,42.08
2017-08-13T14:39:49.390Z,42.66
2017-08-13T14:42:18.766Z,42.65
2017-08-13T14:44:48.355Z,45.88
2017-08-13T14:47:17.926Z,47.28
2017-08-13T14:49:47.588Z,48.04
2017-08-13T14:52:16.882Z,49.86
2017-08-13T14:54:46.412Z,50.71
2017-08-13T14:57:16.082Z,50.86
2017-08-13T14:59:45.370Z,50.45
2017-08-13T15:02:15.209Z,48.97
2017-08-13T15:04:44.703Z,47.39
2017-08-13T15:07:13.870Z,47.32
2017-08-13T15:09:43.570Z,47.55
2017-08-13T15:12:12.986Z,46.60
2017-08-13T15:14:42.453Z,48.55
2017-08-13T15:17:11.953Z,48.76
2017-08-13T15:19:41.183Z,48.36
2017-08-13T15:22:10.787Z,48.39
2017-08-13T15:24:40.288Z,48.25
2017-08-13T15:27:09.702Z,48.48
2017-08-13T15:29:39.293Z,48.38
2017-08-13T15:32:08.885Z,47.42
2017-08-13T15:34:38.233Z,48.90
2017-08-13T15:37:07.509Z,49.78
2017-08-13T15:39:37.362Z,50.91
2017-08-13T15:42:06.851Z,51.62
2017-08-13T15:44:36.733Z,50.98
2017-08-13T15:47:06.063Z,51.13
2017-08-13T15:49:35.515Z,50.73
2017-08-13T15:52:04.891Z,51.24
2017-08-13T15:54:34.287Z,51.60
2017-08-13T15:57:03.921Z,52.70
2017-08-13T15:59:33.205Z,53.41
2017-08-13T16:02:02.352Z,53.48
2017-08-13T16:04:31.751Z,53.23
2017-08-13T16:07:01.612Z,54.00
2017-08-13T16:09:31.209Z,53.80
2017-08-13T16:12:00.431Z,53.70
2017-08-13T16:14:30.072Z,53.44
2017-08-13T16:16:59.665Z,53.56
2017-08-13T16:19:29.357Z,54.35
2017-08-13T16:21:59.026Z,55.45
2017-08-13T16:24:28.326Z,55.47
2017-08-13T16:26:57.522Z,55.62
2017-08-13T16:29:27.623Z,55.66
2017-08-13T16:31:57.558Z,55.89
2017-08-13T16:34:27.152Z,56.35
2017-08-13T16:36:56.582Z,56.45
2017-08-13T16:39:25.852Z,56.39
2017-08-13T16:41:55.276Z,56.17
2017-08-13T16:44:25.107Z,56.27
2017-08-13T16:46:54.778Z,55.61
2017-08-13T16:49:25.441Z,55.02
2017-08-13T16:51:54.824Z,54.88
2017-08-13T16:54:24.470Z,55.42
2017-08-13T16:56:53.723Z,55.71
2017-08-13T16:59:22.886Z,55.42
2017-08-13T17:01:52.713Z,54.85
2017-08-13T17:04:22.145Z,55.22
2017-08-13T17:06:51.251Z,55.17
2017-08-13T17:09:20.478Z,55.49
2017-08-13T17:11:49.905Z,55.40
2017-08-13T17:14:19.367Z,55.69
2017-08-13T17:16:49.094Z,55.96
2017-08-13T17:19:19.344Z,56.33
2017-08-13T17:21:50.038Z,56.34
2017-08-13T17:24:19.084Z,56.53
2017-08-13T17:26:48.352Z,56.78
2017-08-13T17:29:18.431Z,56.59
2017-08-13T17:31:47.803Z,56.93
2017-08-13T17:34:17.381Z,57.32
2017-08-13T17:36:46.583Z,57.35
2017-08-13T17:39:15.639Z,57.55
2017-08-13T17:41:46.068Z,57.55
2017-08-13T17:44:15.102Z,57.54
2017-08-13T17:46:44.293Z,58.01
2017-08-13T17:49:14.179Z,58.28
2017-08-13T17:51:43.651Z,58.50
2017-08-13T17:54:13.031Z,58.55
2017-08-13T17:56:42.271Z,58.60
2017-08-13T17:59:12.492Z,58.91
2017-08-13T18:01:41.620Z,59.00
2017-08-13T18:04:11.264Z,59.38
2017-08-13T18:06:40.526Z,59.46
2017-08-13T18:09:09.801Z,59.39
2017-08-13T18:11:39.607Z,59.44
2017-08-13T18:14:09.125Z,59.83
2017-08-13T18:16:39.139Z,59.82
2017-08-13T18:19:08.489Z,59.88
2017-08-13T18:21:37.964Z,60.15
2017-08-13T18:24:07.573Z,60.52
2017-08-13T18:26:37.685Z,60.86
2017-08-13T18:29:07.260Z,60.94
2017-08-13T18:31:37.012Z,61.44
2017-08-13T18:34:07.142Z,61.68
2017-08-13T18:36:36.376Z,61.47
2017-08-13T18:39:05.705Z,61.67
2017-08-13T18:41:36.248Z,61.65
2017-08-13T18:44:06.431Z,61.97
2017-08-13T18:46:35.594Z,62.46
2017-08-13T18:49:05.003Z,62.66
2017-08-13T18:51:33.780Z,62.60
2017-08-13T18:54:03.698Z,62.86
2017-08-13T18:56:33.054Z,62.84
2017-08-13T18:59:00.897Z,63.07
2017-08-13T19:01:30.187Z,63.20
2017-08-13T19:03:59.739Z,64.08
2017-08-13T19:06:29.074Z,64.64
2017-08-13T19:08:58.601Z,65.13
2017-08-13T19:11:28.077Z,65.34
2017-08-13T19:13:57.392Z,65.46
2017-08-13T19:16:26.741Z,65.50
2017-08-13T19:18:55.832Z,65.64
2017-08-13T19:21:25.837Z,65.69
2017-08-13T19:23:55.240Z,66.15
2017-08-13T19:26:24.634Z,66.33
2017-08-13T19:28:52.943Z,66.37
2017-08-13T19:31:22.020Z,66.45
2017-08-13T19:33:50.039Z,66.16
2017-08-13T19:36:19.349Z,65.91
2017-08-13T19:38:48.761Z,65.93
2017-08-13T19:41:18.380Z,66.29
2017-08-13T19:43:47.682Z,66.47
2017-08-13T19:46:17.897Z,66.72
2017-08-13T19:48:47.145Z,67.39
2017-08-13T19:51:17.040Z,67.14
2017-08-13T19:53:46.246Z,67.07
2017-08-13T19:56:14.539Z,66.79
2017-08-13T19:58:44.070Z,66.93
2017-08-13T20:01:13.131Z,66.40
2017-08-13T20:03:41.738Z,67.32
2017-08-13T20:06:10.897Z,67.06
2017-08-13T20:08:40.059Z,67.68
2017-08-13T20:11:09.166Z,67.33
2017-08-13T20:13:38.591Z,67.53
2017-08-13T20:16:08.148Z,67.53
2017-08-13T20:18:37.816Z,67.23
2017-08-13T20:21:06.539Z,67.36
2017-08-13T20:23:35.864Z,67.24
2017-08-13T20:26:05.747Z,67.66
2017-08-13T20:28:35.630Z,67.47
2017-08-13T20:31:05.092Z,67.27
2017-08-13T20:33:33.746Z,67.30
2017-08-13T20:36:03.506Z,67.21
2017-08-13T20:38:32.771Z,67.27
2017-08-13T20:41:02.285Z,67.23
2017-08-13T20:43:31.467Z,67.33
2017-08-13T20:46:02.025Z,67.19
2017-08-13T20:48:31.699Z,67.61
2017-08-13T20:51:00.280Z,67.83
2017-08-13T20:53:30.057Z,68.19
2017-08-13T20:56:00.297Z,68.42
2017-08-13T20:58:29.947Z,68.50
2017-08-13T21:00:59.105Z,68.68
2017-08-13T21:03:28.158Z,68.79
2017-08-13T21:05:57.384Z,68.66
2017-08-13T21:08:27.014Z,68.73
2017-08-13T21:10:56.488Z,68.52
2017-08-13T21:13:25.167Z,68.37
2017-08-13T21:15:54.851Z,68.38
2017-08-13T21:18:24.825Z,68.57
2017-08-13T21:20:54.176Z,68.61
2017-08-13T21:23:23.782Z,68.78
2017-08-13T21:25:53.313Z,69.19
2017-08-13T21:28:22.880Z,69.05
2017-08-13T21:30:52.277Z,69.29
2017-08-13T21:33:21.614Z,69.42
2017-08-13T21:35:51.469Z,69.44
2017-08-13T21:38:20.024Z,69.34
2017-08-13T21:40:49.369Z,69.54
2017-08-13T21:43:18.588Z,69.54
2017-08-13T21:45:47.827Z,69.43
2017-08-13T21:48:18.807Z,69.62
2017-08-13T21:50:47.851Z,70.00
2017-08-13T21:53:17.366Z,70.40
2017-08-13T21:55:46.041Z,70.42
2017-08-13T21:58:15.520Z,70.25
2017-08-13T22:00:44.612Z,70.09
2017-08-13T22:03:13.869Z,70.58
2017-08-13T22:05:43.140Z,70.70
2017-08-13T22:08:12.548Z,70.54
2017-08-13T22:10:41.791Z,70.62
2017-08-13T22:13:11.028Z,70.42
2017-08-13T22:15:40.307Z,70.53
2017-08-13T22:18:10.014Z,70.43
2017-08-13T22:20:39.454Z,70.40
2017-08-13T22:23:08.974Z,70.08
2017-08-13T22:25:39.060Z,69.99
2017-08-13T22:28:08.946Z,70.04
2017-08-13T22:30:38.434Z,72.28
2017-08-13T22:33:07.778Z,72.03
2017-08-13T22:35:37.514Z,71.82
2017-08-13T22:38:06.977Z,72.19
2017-08-13T22:40:36.627Z,72.20
2017-08-13T22:43:06.441Z,72.17
2017-08-13T22:45:35.677Z,72.58
2017-08-13T22:48:05.005Z,73.01
2017-08-13T22:50:34.473Z,73.28
2017-08-13T22:53:03.683Z,73.24
2017-08-13T22:55:33.322Z,73.85
2017-08-13T22:58:02.716Z,73.50
2017-08-13T23:00:32.254Z,72.92
2017-08-13T23:03:01.802Z,72.96
2017-08-13T23:05:31.367Z,72.91
2017-08-13T23:08:00.566Z,74.08
2017-08-13T23:10:29.956Z,73.47
2017-08-13T23:12:59.415Z,73.87
2017-08-13T23:15:28.783Z,74.02
2017-08-13T23:17:58.544Z,73.62
2017-08-13T23:20:27.976Z,73.40
2017-08-13T23:22:57.683Z,73.22
2017-08-13T23:25:26.799Z,73.11
2017-08-13T23:27:56.328Z,73.06
2017-08-13T23:30:26.510Z,72.92
2017-08-13T23:32:54.439Z,72.86
2017-08-13T23:35:23.788Z,72.75
2017-08-13T23:37:53.622Z,72.89
2017-08-13T23:40:22.768Z,73.04
2017-08-13T23:42:52.186Z,73.04
2017-08-13T23:45:19.841Z,73.04
2017-08-13T23:47:49.408Z,72.57
2017-08-13T23:50:17.685Z,72.37
2017-08-13T23:52:46.605Z,72.39
2017-08-13T23:55:15.179Z,72.53
2017-08-13T23:57:44.389Z,73.14
